createdAt,value
2022-11-22T00:25:48.172Z,5.8
2022-11-22T02:15:43.522Z,4.9
2022-11-22T04:05:55.515Z,4.1
2022-11-22T05:56:31.360Z,4.5
2022-11-22T07:48:08.505Z,5.9
2022-11-22T08:01:40.945Z,6
2022-11-22T08:15:40.948Z,6.1
2022-11-22T08:29:41.863Z,6.3
2022-11-22T08:43:43.847Z,6.4
2022-11-22T08:57:47.202Z,6.6
2022-11-22T09:11:49.835Z,6.8
2022-11-22T09:25:51.793Z,6.9
2022-11-22T09:39:54.499Z,7.3
2022-11-22T09:53:59.339Z,7.1
2022-11-22T10:08:03.487Z,7.4
2022-11-22T10:22:12.172Z,8.7
2022-11-22T10:54:04.641Z,9.8
2022-11-22T11:08:30.181Z,9.7
2022-11-22T11:57:35.291Z,8.8
2022-11-22T12:11:35.152Z,10.4
2022-11-22T12:25:36.256Z,10.1
2022-11-22T12:39:34.961Z,9.4
2022-11-22T12:53:33.529Z,8.7
2022-11-22T13:07:33.798Z,8.5
2022-11-22T13:21:36.561Z,8.4
2022-11-22T13:35:43.566Z,8.6
2022-11-22T13:49:48.810Z,9
2022-11-22T14:03:48.233Z,8.9
2022-11-22T14:17:48.464Z,9.3
2022-11-22T14:31:51.800Z,9
2022-11-22T14:45:51.147Z,8.8
2022-11-22T14:59:51.582Z,8.9
2022-11-22T15:13:52.749Z,8.7
2022-11-22T16:09:54.328Z,7.3
2022-11-22T16:23:59.827Z,7.8
2022-11-22T16:38:02.435Z,8
2022-11-22T17:09:59.343Z,8.4
2022-11-22T17:24:01.610Z,8.4
2022-11-22T17:38:05.139Z,8.6
2022-11-22T17:52:06.426Z,8.6
2022-11-22T18:06:05.453Z,8.4
2022-11-22T18:20:06.935Z,8.4
2022-11-22T18:34:09.446Z,8.2
2022-11-22T18:48:10.824Z,8.1
2022-11-22T19:02:08.963Z,8
2022-11-22T19:16:11.900Z,8
2022-11-22T19:30:14.450Z,8
2022-11-22T19:44:13.895Z,8
2022-11-22T19:58:15.552Z,8
2022-11-22T20:12:15.236Z,8
2022-11-22T20:26:15.837Z,8
2022-11-22T20:40:18.920Z,8
2022-11-22T20:54:21.220Z,8
2022-11-22T21:08:22.903Z,8.1
2022-11-22T21:22:31.457Z,8.1
2022-11-22T21:36:26.321Z,8.1
2022-11-22T21:50:28.260Z,8.1
2022-11-22T22:04:29.549Z,8
2022-11-22T22:37:21.475Z,8.1
2022-11-22T22:51:11.129Z,8.1
2022-11-22T23:05:11.300Z,8.1
2022-11-22T23:19:12.598Z,8.1
2022-11-22T23:33:14.319Z,8.2
2022-11-22T23:47:17.099Z,8.2
